Terminal Aerodrome Forecast
Issued by NWS Rapid City, SD

Home | Current Version | Previous Version | Graphics & Text | Print | Product List | Glossary On
Versions: 1 2 3 4 5 6 7 8 9 10 11 12 13 14 15 16 17
873
FTUS43 KUNR 310520
TAFRAP
TAF
KRAP 310520Z 3106/0106 33015KT P6SM BKN100
     FM311500 32026G36KT P6SM BKN060
     FM010000 30013KT P6SM SCT150=

USA.gov is the U.S. government's official web portal to all federal, state and local government web resources and services.